Time;durP1;ratioP1;P1;durP2;ratioP2;P2;SDS_P1;SDS_P2;PMS_P1;PMS_P2;Temp;Humidity;BMP_temperature;BMP_pressure;BME280_temperature;BME280_humidity;BME280_pressure;Samples;Min_cycle;Max_cycle;Signal;HPM_P1;HPM_P2
2022/01/24 00:06:32;;;;;;;;;;;6.00;99.90;;;;;;5174170;27;19926;-84
2022/01/24 00:08:59;;;;;;;;;;;6.00;99.90;;;;;;5133491;27;19931;-83
2022/01/24 00:11:35;;;;;;;;;;;5.90;99.90;;;;;;5114525;28;19924;-86
2022/01/24 00:17:00;;;;;;;;;;;6.00;99.90;;;;;;4974844;28;19935;-81
2022/01/24 00:29:59;;;;;;;;;;;6.00;99.90;;;;;;5179725;27;19925;-86
2022/01/24 00:32:27;;;;;;;;;;;6.00;99.90;;;;;;5106594;28;19931;-83
2022/01/24 00:34:53;;;;;;;;;;;6.00;99.90;;;;;;5096338;27;19924;-82
2022/01/24 00:37:20;;;;;;;;;;;6.10;99.90;;;;;;5093335;28;19929;-83
2022/01/24 00:39:47;;;;;;;;;;;6.20;99.90;;;;;;5030752;28;19937;-82
2022/01/24 00:42:24;;;;;;;;;;;6.20;99.90;;;;;;4910894;28;19929;-82
2022/01/24 00:45:04;;;;;;;;;;;6.20;99.90;;;;;;4657679;30;19933;-83
2022/01/24 00:55:21;;;;;;;;;;;6.20;99.90;;;;;;5093183;28;19924;-82
2022/01/24 00:57:47;;;;;;;;;;;6.20;99.90;;;;;;5104581;27;19923;-86
2022/01/24 01:00:14;;;;;;;;;;;6.20;99.90;;;;;;5076868;28;19933;-82
2022/01/24 01:02:41;;;;;;;;;;;6.10;99.90;;;;;;4979951;28;20034;-79
2022/01/24 01:05:21;;;;;;;;;;;6.20;99.90;;;;;;4867716;29;19928;-80
2022/01/24 01:07:56;;;;;;;;;;;6.20;99.90;;;;;;4599571;30;19935;-80
2022/01/24 01:18:32;;;;;;;;;;;6.20;99.90;;;;;;5116566;27;19923;-80
2022/01/24 01:21:09;;;;;;;;;;;6.20;99.90;;;;;;5121935;28;19954;-82
2022/01/24 01:23:38;;;;;;;;;;;6.30;99.90;;;;;;5059249;28;19936;-83
2022/01/24 01:26:09;;;;;;;;;;;6.20;99.90;;;;;;4961542;28;19928;-82
2022/01/24 01:28:38;;;;;;;;;;;6.30;99.90;;;;;;4780959;29;19935;-82
2022/01/24 01:31:11;;;;;;;;;;;6.20;99.90;;;;;;4554823;30;19936;-83
2022/01/24 01:52:44;;;;;;;;;;;6.30;99.90;;;;;;4739475;29;19944;-82
2022/01/24 01:55:24;;;;;;;;;;;6.30;99.90;;;;;;4455722;31;19939;-81
2022/01/24 02:02:26;;;;;;;;;;;6.30;99.90;;;;;;5157209;27;19926;-84
2022/01/24 02:04:52;;;;;;;;;;;6.30;99.90;;;;;;5118178;27;19942;-82
2022/01/24 02:07:19;;;;;;;;;;;6.40;99.90;;;;;;5104306;28;19928;-82
2022/01/24 02:09:46;;;;;;;;;;;6.40;99.90;;;;;;5088270;28;19924;-82
2022/01/24 02:12:13;;;;;;;;;;;6.40;99.90;;;;;;5002541;28;19935;-87
2022/01/24 02:14:45;;;;;;;;;;;6.40;99.90;;;;;;4838329;29;19929;-84
2022/01/24 02:17:18;;;;;;;;;;;6.40;99.90;;;;;;4620439;30;19935;-85
2022/01/24 02:24:56;;;;;;;;;;;6.40;99.90;;;;;;5184644;27;19926;-85
2022/01/24 02:27:25;;;;;;;;;;;6.40;99.90;;;;;;5113853;27;19923;-81
2022/01/24 02:30:05;;;;;;;;;;;6.40;99.90;;;;;;5114197;28;19924;-80
2022/01/24 02:32:36;;;;;;;;;;;6.40;99.90;;;;;;5067019;28;19909;-80
2022/01/24 02:35:02;;;;;;;;;;;6.40;99.90;;;;;;4965426;28;19928;-86
2022/01/24 02:37:29;;;;;;;;;;;6.30;99.90;;;;;;4855002;29;19956;-86
2022/01/24 02:40:00;;;;;;;;;;;6.40;99.90;;;;;;4619695;30;19934;-85
2022/01/24 02:51:05;;;;;;;;;;;6.40;99.90;;;;;;5099822;27;19923;-85
2022/01/24 02:53:33;;;;;;;;;;;6.40;99.90;;;;;;5067014;28;19924;-84
2022/01/24 02:56:00;;;;;;;;;;;6.40;99.90;;;;;;5044952;28;19931;-83
2022/01/24 02:58:27;;;;;;;;;;;6.40;99.90;;;;;;4984720;28;19927;-85
2022/01/24 03:00:54;;;;;;;;;;;6.30;99.90;;;;;;4832769;28;19929;-83
2022/01/24 03:03:21;;;;;;;;;;;6.30;99.90;;;;;;4599746;30;19935;-83
2022/01/24 03:10:54;;;;;;;;;;;6.20;99.90;;;;;;5171089;27;19926;-83
2022/01/24 03:13:32;;;;;;;;;;;6.20;99.90;;;;;;5117065;27;19923;-83
2022/01/24 03:16:00;;;;;;;;;;;6.20;99.90;;;;;;5077037;28;19925;-83
2022/01/24 03:18:27;;;;;;;;;;;6.20;99.90;;;;;;5067910;28;19924;-83
2022/01/24 03:20:54;;;;;;;;;;;6.10;99.90;;;;;;4942448;28;19936;-82
2022/01/24 03:23:21;;;;;;;;;;;6.10;99.90;;;;;;4847167;29;19937;-80
2022/01/24 03:25:48;;;;;;;;;;;6.10;99.90;;;;;;4616840;30;19949;-83
2022/01/24 03:33:21;;;;;;;;;;;6.10;99.90;;;;;;5174338;27;19926;-83
2022/01/24 03:35:47;;;;;;;;;;;6.00;99.90;;;;;;5139398;27;19923;-81
2022/01/24 03:38:14;;;;;;;;;;;6.00;99.90;;;;;;5123211;27;19942;-82
2022/01/24 03:40:41;;;;;;;;;;;5.90;99.90;;;;;;5107843;28;19924;-85
2022/01/24 03:43:08;;;;;;;;;;;5.90;99.90;;;;;;5010634;28;19927;-83
2022/01/24 03:45:43;;;;;;;;;;;5.90;99.90;;;;;;4829296;29;19930;-88
2022/01/24 03:48:11;;;;;;;;;;;5.90;99.90;;;;;;4534666;30;19944;-89
2022/01/24 03:55:43;;;;;;;;;;;6.00;99.90;;;;;;5186820;27;19926;-82
2022/01/24 03:58:10;;;;;;;;;;;6.00;99.90;;;;;;5112922;27;19924;-82
2022/01/24 04:00:37;;;;;;;;;;;5.90;99.90;;;;;;5113162;28;19942;-85
2022/01/24 04:03:03;;;;;;;;;;;5.90;99.90;;;;;;5019441;28;19926;-83
2022/01/24 04:05:30;;;;;;;;;;;5.90;99.90;;;;;;4992762;28;19952;-86
2022/01/24 04:07:57;;;;;;;;;;;6.00;99.90;;;;;;4841760;29;19931;-87
2022/01/24 04:10:24;;;;;;;;;;;6.00;99.90;;;;;;4588951;30;19942;-82
2022/01/24 04:18:24;;;;;;;;;;;6.00;99.90;;;;;;5170181;27;19926;-88
2022/01/24 04:23:39;;;;;;;;;;;6.10;99.90;;;;;;5014200;28;19933;-79
2022/01/24 04:26:06;;;;;;;;;;;6.10;99.90;;;;;;4965987;28;19927;-84
2022/01/24 04:28:32;;;;;;;;;;;6.10;99.90;;;;;;4860220;29;19937;-84
2022/01/24 04:30:59;;;;;;;;;;;6.10;99.90;;;;;;4657996;30;19941;-83
2022/01/24 04:33:26;;;;;;;;;;;6.10;99.90;;;;;;4369719;31;19948;-83
2022/01/24 04:39:53;;;;;;;;;;;6.10;99.90;;;;;;5154176;27;19926;-89
2022/01/24 04:42:28;;;;;;;;;;;6.20;99.90;;;;;;5104899;28;20022;-82
2022/01/24 04:45:10;;;;;;;;;;;6.10;99.90;;;;;;5068450;28;19924;-86
2022/01/24 04:50:18;;;;;;;;;;;6.10;99.90;;;;;;4996777;28;19927;-81
2022/01/24 04:50:41;;;;;;;;;;;6.20;99.90;;;;;;4903535;29;19928;-84
2022/01/24 04:53:14;;;;;;;;;;;6.20;99.90;;;;;;4701865;29;19933;-87
2022/01/24 04:55:42;;;;;;;;;;;6.10;99.90;;;;;;4392253;31;19945;-81
2022/01/24 05:03:16;;;;;;;;;;;6.10;99.90;;;;;;5182968;27;19925;-84
2022/01/24 05:05:44;;;;;;;;;;;6.20;99.90;;;;;;5130635;27;19935;-86
2022/01/24 05:08:11;;;;;;;;;;;6.20;99.90;;;;;;5147729;27;19918;-85
2022/01/24 05:10:42;;;;;;;;;;;6.10;99.90;;;;;;5151586;27;19912;-85
2022/01/24 05:26:29;;;;;;;;;;;6.10;99.90;;;;;;5170575;27;19930;-82
2022/01/24 05:28:56;;;;;;;;;;;6.10;99.90;;;;;;5108126;28;19924;-83
2022/01/24 05:31:23;;;;;;;;;;;6.00;99.90;;;;;;5093451;28;19932;-86
2022/01/24 05:33:49;;;;;;;;;;;6.00;99.90;;;;;;5017253;28;19933;-86
2022/01/24 05:36:16;;;;;;;;;;;6.00;99.90;;;;;;4960341;28;19927;-86
2022/01/24 05:38:42;;;;;;;;;;;6.00;99.90;;;;;;4810366;29;19938;-84
2022/01/24 05:41:09;;;;;;;;;;;6.00;99.90;;;;;;4493710;30;19938;-87
2022/01/24 05:48:41;;;;;;;;;;;6.00;99.90;;;;;;5195942;27;19925;-85
2022/01/24 05:51:08;;;;;;;;;;;6.00;99.90;;;;;;5140786;27;19924;-85
2022/01/24 05:53:34;;;;;;;;;;;6.10;99.90;;;;;;5129244;27;19931;-83
2022/01/24 05:56:01;;;;;;;;;;;6.00;99.90;;;;;;5095677;27;19925;-84
2022/01/24 05:58:28;;;;;;;;;;;6.00;99.90;;;;;;5001490;28;19934;-86
2022/01/24 06:00:54;;;;;;;;;;;5.90;99.90;;;;;;4842542;29;19930;-88
2022/01/24 06:03:21;;;;;;;;;;;5.90;99.90;;;;;;4643569;30;19940;-83
2022/01/24 06:10:58;;;;;;;;;;;5.90;99.90;;;;;;5192186;27;19926;-84
2022/01/24 06:13:24;;;;;;;;;;;5.90;99.90;;;;;;5117845;27;19946;-84
2022/01/24 06:15:51;;;;;;;;;;;5.90;99.90;;;;;;5118912;27;19931;-84
2022/01/24 06:18:20;;;;;;;;;;;5.90;99.90;;;;;;5127861;27;19931;-85
2022/01/24 06:20:46;;;;;;;;;;;5.90;99.90;;;;;;5051325;28;19934;-83
2022/01/24 06:23:13;;;;;;;;;;;5.90;99.90;;;;;;4849977;29;19930;-82
2022/01/24 06:25:40;;;;;;;;;;;5.90;99.90;;;;;;4561392;30;19944;-82
2022/01/24 06:30:50;;;;;;;;;;;5.90;99.90;;;;;;5183099;27;19926;-81
2022/01/24 06:33:17;;;;;;;;;;;5.80;99.90;;;;;;5123028;27;19923;-86
2022/01/24 06:35:44;;;;;;;;;;;5.90;99.90;;;;;;5113996;27;19945;-81
2022/01/24 06:38:10;;;;;;;;;;;5.80;99.90;;;;;;5078078;28;19925;-84
2022/01/24 06:40:37;;;;;;;;;;;5.80;99.90;;;;;;4973090;28;19927;-80
2022/01/24 06:43:03;;;;;;;;;;;5.80;99.90;;;;;;4809533;29;19931;-82
2022/01/24 06:45:30;;;;;;;;;;;5.70;99.90;;;;;;4603122;30;19942;-81
2022/01/24 06:53:02;;;;;;;;;;;5.80;99.90;;;;;;5177314;27;19925;-83
2022/01/24 06:55:29;;;;;;;;;;;5.70;99.90;;;;;;5139134;27;19923;-83
2022/01/24 06:57:55;;;;;;;;;;;5.80;99.90;;;;;;5106929;28;19932;-84
2022/01/24 07:00:26;;;;;;;;;;;5.70;99.90;;;;;;5063078;28;19929;-85
2022/01/24 07:02:52;;;;;;;;;;;5.80;99.90;;;;;;4968081;28;19927;-84
2022/01/24 07:05:19;;;;;;;;;;;5.70;99.90;;;;;;4883087;28;20009;-83
2022/01/24 07:07:46;;;;;;;;;;;5.70;99.90;;;;;;4768138;29;19937;-83
2022/01/24 07:15:22;;;;;;;;;;;5.80;99.90;;;;;;5174729;27;19926;-84
2022/01/24 07:18:11;;;;;;;;;;;5.80;99.90;;;;;;5112694;28;19930;-82
2022/01/24 07:20:38;;;;;;;;;;;5.80;99.90;;;;;;5086787;28;19931;-87
2022/01/24 07:23:04;;;;;;;;;;;5.80;99.90;;;;;;5053348;28;19925;-83
2022/01/24 07:25:31;;;;;;;;;;;5.80;99.90;;;;;;4923394;28;19935;-85
2022/01/24 07:27:58;;;;;;;;;;;5.80;99.90;;;;;;4713221;29;20732;-85
2022/01/24 07:30:25;;;;;;;;;;;5.80;99.90;;;;;;4499656;31;19936;-84
2022/01/24 07:37:59;;;;;;;;;;;5.90;99.90;;;;;;5181756;27;19929;-82
2022/01/24 07:40:26;;;;;;;;;;;5.80;99.90;;;;;;5149834;27;19929;-82
2022/01/24 07:42:56;;;;;;;;;;;5.80;99.90;;;;;;5125059;27;19931;-84
2022/01/24 07:45:25;;;;;;;;;;;5.90;99.90;;;;;;5105245;28;19924;-83
2022/01/24 07:47:51;;;;;;;;;;;5.90;99.90;;;;;;5035359;28;19934;-81
2022/01/24 07:50:19;;;;;;;;;;;6.00;99.90;;;;;;4880729;29;19936;-83
2022/01/24 07:52:46;;;;;;;;;;;6.00;99.90;;;;;;4676506;29;19940;-83
2022/01/24 08:00:19;;;;;;;;;;;6.00;99.90;;;;;;5176307;27;19926;-84
2022/01/24 08:02:46;;;;;;;;;;;5.90;99.90;;;;;;5119281;27;19923;-83
2022/01/24 08:05:12;;;;;;;;;;;5.90;99.90;;;;;;5137123;27;19939;-82
2022/01/24 08:07:39;;;;;;;;;;;5.90;99.90;;;;;;5100386;28;19928;-82
2022/01/24 08:10:07;;;;;;;;;;;6.00;99.90;;;;;;5002688;28;19927;-81
2022/01/24 08:12:34;;;;;;;;;;;6.00;99.90;;;;;;4798140;29;19931;-82
2022/01/24 08:15:02;;;;;;;;;;;5.90;99.90;;;;;;4619180;30;19942;-81
2022/01/24 08:22:35;;;;;;;;;;;6.20;99.90;;;;;;5163810;27;19926;-80
2022/01/24 08:25:04;;;;;;;;;;;6.30;99.90;;;;;;5123003;27;19923;-83
2022/01/24 08:27:31;;;;;;;;;;;6.30;99.90;;;;;;5115230;28;19930;-81
2022/01/24 08:29:58;;;;;;;;;;;6.30;99.90;;;;;;5077190;28;19929;-81
2022/01/24 08:32:24;;;;;;;;;;;6.30;99.90;;;;;;4973324;28;19935;-83
2022/01/24 08:34:51;;;;;;;;;;;6.20;99.90;;;;;;4798962;29;19937;-81
2022/01/24 08:37:18;;;;;;;;;;;6.30;99.90;;;;;;4605079;30;19934;-83
2022/01/24 08:47:35;;;;;;;;;;;6.40;99.90;;;;;;5121322;27;19924;-83
2022/01/24 08:50:03;;;;;;;;;;;6.50;99.90;;;;;;5118032;28;19924;-85
2022/01/24 08:52:29;;;;;;;;;;;6.50;99.90;;;;;;5046910;28;19926;-83
2022/01/24 08:54:56;;;;;;;;;;;6.40;99.90;;;;;;4939005;28;19928;-82
2022/01/24 08:57:25;;;;;;;;;;;6.50;99.90;;;;;;4771806;29;19932;-85
2022/01/24 08:59:53;;;;;;;;;;;6.60;99.90;;;;;;4448456;30;19951;-83
2022/01/24 09:09:48;;;;;;;;;;;6.90;99.90;;;;;;5177262;27;19925;-82
2022/01/24 09:12:14;;;;;;;;;;;7.20;99.90;;;;;;5124663;27;19931;-84
2022/01/24 09:14:43;;;;;;;;;;;7.30;99.90;;;;;;5116625;27;19931;-83
2022/01/24 09:17:10;;;;;;;;;;;7.20;99.90;;;;;;5096700;28;19924;-82
2022/01/24 09:19:36;;;;;;;;;;;7.20;99.90;;;;;;5024582;28;19926;-82
2022/01/24 09:22:03;;;;;;;;;;;7.30;99.90;;;;;;4860329;29;19952;-83
2022/01/24 09:24:30;;;;;;;;;;;7.30;99.90;;;;;;4619960;30;19942;-83
2022/01/24 09:29:38;;;;;;;;;;;7.40;99.90;;;;;;5177809;27;19926;-81
2022/01/24 09:32:05;;;;;;;;;;;7.40;99.90;;;;;;5137812;27;19923;-80
2022/01/24 09:34:32;;;;;;;;;;;7.50;99.90;;;;;;5129652;27;19937;-81
2022/01/24 09:37:01;;;;;;;;;;;7.60;99.90;;;;;;5112990;28;19924;-83
2022/01/24 09:39:28;;;;;;;;;;;7.50;99.90;;;;;;5044059;28;19927;-82
2022/01/24 09:41:55;;;;;;;;;;;7.50;99.90;;;;;;4830067;29;19932;-82
2022/01/24 09:44:22;;;;;;;;;;;7.50;99.90;;;;;;4515524;30;19937;-83
2022/01/24 09:51:54;;;;;;;;;;;7.70;99.90;;;;;;5163907;27;19930;-85
2022/01/24 09:54:20;;;;;;;;;;;7.90;99.90;;;;;;5134633;27;19923;-81
2022/01/24 09:56:47;;;;;;;;;;;7.80;99.90;;;;;;5116300;27;19931;-83
2022/01/24 09:59:14;;;;;;;;;;;7.80;99.90;;;;;;5096234;28;19924;-83
2022/01/24 10:01:42;;;;;;;;;;;7.90;99.90;;;;;;5071844;28;19925;-82
2022/01/24 10:04:10;;;;;;;;;;;7.90;99.90;;;;;;4842498;29;19932;-84
2022/01/24 10:06:57;;;;;;;;;;;8.00;99.90;;;;;;4528466;30;19936;-85
2022/01/24 10:12:12;;;;;;;;;;;7.80;99.90;;;;;;5172896;27;19930;-81
2022/01/24 10:17:27;;;;;;;;;;;7.80;99.90;;;;;;5095660;28;19931;-84
2022/01/24 10:19:55;;;;;;;;;;;7.70;99.90;;;;;;5039036;28;19926;-85
2022/01/24 10:22:23;;;;;;;;;;;7.70;99.90;;;;;;4919601;28;19928;-82
2022/01/24 10:24:54;;;;;;;;;;;7.50;99.90;;;;;;4696275;29;19933;-82
2022/01/24 10:27:23;;;;;;;;;;;7.40;99.90;;;;;;4347564;32;19940;-84
2022/01/24 10:34:56;;;;;;;;;;;7.10;99.90;;;;;;5186454;27;19925;-81
2022/01/24 10:37:23;;;;;;;;;;;7.10;99.90;;;;;;5150870;27;19923;-81
2022/01/24 10:39:56;;;;;;;;;;;7.00;99.90;;;;;;5118943;27;20054;-84
2022/01/24 10:42:35;;;;;;;;;;;6.90;99.90;;;;;;5088069;28;19924;-85
2022/01/24 10:45:10;;;;;;;;;;;6.90;99.90;;;;;;4966733;28;19934;-83
2022/01/24 10:47:43;;;;;;;;;;;6.90;99.90;;;;;;4828208;29;19936;-86
2022/01/24 10:50:18;;;;;;;;;;;6.90;99.90;;;;;;4569456;30;19935;-81
2022/01/24 10:57:50;;;;;;;;;;;6.90;99.90;;;;;;5207055;27;19926;-80
2022/01/24 11:00:18;;;;;;;;;;;6.80;99.90;;;;;;5152135;27;19923;-84
2022/01/24 11:02:48;;;;;;;;;;;6.80;99.90;;;;;;5116763;27;19923;-84
2022/01/24 11:05:16;;;;;;;;;;;6.80;99.90;;;;;;5121189;27;19930;-85
2022/01/24 11:07:53;;;;;;;;;;;6.80;99.90;;;;;;5041249;28;19946;-84
2022/01/24 11:10:20;;;;;;;;;;;6.90;99.90;;;;;;4808438;29;19938;-82
2022/01/24 11:12:46;;;;;;;;;;;7.00;99.90;;;;;;4516459;30;19937;-86
2022/01/24 11:20:21;;;;;;;;;;;7.60;99.90;;;;;;5195843;27;19926;-84
2022/01/24 11:22:51;;;;;;;;;;;7.60;99.90;;;;;;5135589;27;19931;-85
2022/01/24 11:25:17;;;;;;;;;;;7.50;99.90;;;;;;5096865;28;19932;-83
2022/01/24 11:27:47;;;;;;;;;;;7.30;99.90;;;;;;5048331;28;19925;-81
2022/01/24 11:30:14;;;;;;;;;;;7.20;99.90;;;;;;4962717;28;19936;-82
2022/01/24 11:32:44;;;;;;;;;;;7.10;99.90;;;;;;4722739;29;19936;-84
2022/01/24 11:35:11;;;;;;;;;;;6.90;99.90;;;;;;4534373;30;19943;-84
2022/01/24 11:42:46;;;;;;;;;;;6.60;99.90;;;;;;5176887;27;19927;-85
2022/01/24 11:45:15;;;;;;;;;;;6.40;99.90;;;;;;5107958;27;19924;-82
2022/01/24 11:47:42;;;;;;;;;;;6.40;99.90;;;;;;5114742;27;19924;-83
2022/01/24 11:50:31;;;;;;;;;;;6.50;99.90;;;;;;5112314;27;19937;-84
2022/01/24 11:52:58;;;;;;;;;;;6.50;99.90;;;;;;5004038;28;19934;-84
2022/01/24 11:55:31;;;;;;;;;;;6.50;99.90;;;;;;4782077;29;19931;-84
2022/01/24 11:58:00;;;;;;;;;;;6.50;99.90;;;;;;4470165;30;19938;-82
2022/01/24 12:05:41;;;;;;;;;;;6.40;99.90;;;;;;5178562;27;19926;-85
2022/01/24 12:08:11;;;;;;;;;;;6.40;99.90;;;;;;5137537;27;19930;-84
2022/01/24 12:10:43;;;;;;;;;;;6.30;99.90;;;;;;5138241;27;19931;-83
2022/01/24 12:13:14;;;;;;;;;;;6.30;99.90;;;;;;5098453;28;19924;-84
2022/01/24 12:16:04;;;;;;;;;;;6.30;99.90;;;;;;4978917;28;19935;-84
2022/01/24 12:18:44;;;;;;;;;;;6.40;99.90;;;;;;4818446;29;19938;-81
2022/01/24 12:21:13;;;;;;;;;;;6.40;99.90;;;;;;4511511;30;19939;-85
2022/01/24 12:28:48;;;;;;;;;;;6.30;99.90;;;;;;5175463;27;19926;-85
2022/01/24 12:31:20;;;;;;;;;;;6.30;99.90;;;;;;5138286;27;19930;-85
2022/01/24 12:33:58;;;;;;;;;;;6.30;99.90;;;;;;5105307;27;19931;-85
2022/01/24 12:36:46;;;;;;;;;;;6.30;99.90;;;;;;5114988;28;19930;-83
2022/01/24 12:39:14;;;;;;;;;;;6.30;99.90;;;;;;4963357;28;19927;-83
2022/01/24 12:41:46;;;;;;;;;;;6.30;99.90;;;;;;4895804;29;19928;-82
2022/01/24 12:52:05;;;;;;;;;;;6.30;99.90;;;;;;5161543;27;19926;-82
2022/01/24 12:54:33;;;;;;;;;;;6.30;99.90;;;;;;5115886;27;19924;-87
2022/01/24 12:57:00;;;;;;;;;;;6.10;99.90;;;;;;5116762;27;19923;-85
2022/01/24 12:59:27;;;;;;;;;;;6.10;99.90;;;;;;5071464;28;19931;-85
2022/01/24 13:02:00;;;;;;;;;;;6.10;99.90;;;;;;4962100;28;20038;-83
2022/01/24 13:04:33;;;;;;;;;;;6.00;99.90;;;;;;4841674;29;19937;-83
2022/01/24 13:07:01;;;;;;;;;;;6.00;99.90;;;;;;4599881;30;19953;-83
2022/01/24 13:22:30;;;;;;;;;;;6.00;99.90;;;;;;5082552;28;19925;-86
2022/01/24 13:25:01;;;;;;;;;;;6.00;99.90;;;;;;5023748;28;19937;-83
2022/01/24 13:27:39;;;;;;;;;;;6.10;99.90;;;;;;4930723;28;19935;-83
2022/01/24 13:30:07;;;;;;;;;;;6.00;99.90;;;;;;4711767;29;19939;-81
2022/01/24 13:32:47;;;;;;;;;;;6.10;99.90;;;;;;4534874;30;19936;-85
2022/01/24 13:40:40;;;;;;;;;;;6.00;99.90;;;;;;5173644;27;19929;-83
2022/01/24 13:43:08;;;;;;;;;;;6.00;99.90;;;;;;5133916;28;19924;-81
2022/01/24 13:45:35;;;;;;;;;;;6.00;99.90;;;;;;5094189;28;19924;-83
2022/01/24 13:48:03;;;;;;;;;;;6.00;99.90;;;;;;5070515;28;19933;-82
2022/01/24 13:50:30;;;;;;;;;;;5.90;99.90;;;;;;4951654;28;19928;-85
2022/01/24 13:52:59;;;;;;;;;;;6.00;99.90;;;;;;4728915;29;19932;-82
2022/01/24 13:55:25;;;;;;;;;;;6.00;99.90;;;;;;4581054;30;19935;-83
2022/01/24 13:57:54;;;;;;;;;;;5.90;99.90;;;;;;4303346;31;19949;-83
2022/01/24 14:04:38;;;;;;;;;;;5.90;99.90;;;;;;5174256;27;19926;-82
2022/01/24 14:07:06;;;;;;;;;;;5.90;99.90;;;;;;5134452;27;19934;-82
2022/01/24 14:09:34;;;;;;;;;;;5.90;99.90;;;;;;5138315;27;19922;-82
2022/01/24 14:12:01;;;;;;;;;;;5.90;99.90;;;;;;5109781;28;19932;-82
2022/01/24 14:14:37;;;;;;;;;;;5.80;99.90;;;;;;5006636;28;19927;-83
2022/01/24 14:17:17;;;;;;;;;;;5.80;99.90;;;;;;4830806;29;19931;-82
2022/01/24 14:19:55;;;;;;;;;;;5.80;99.90;;;;;;4448532;31;19940;-82
2022/01/24 14:27:38;;;;;;;;;;;5.60;99.90;;;;;;5175609;27;19926;-83
2022/01/24 14:30:07;;;;;;;;;;;5.70;99.90;;;;;;5136252;27;19923;-82
2022/01/24 14:32:38;;;;;;;;;;;5.70;99.90;;;;;;5076063;28;19925;-85
2022/01/24 14:35:06;;;;;;;;;;;5.70;99.90;;;;;;5030846;28;19926;-81
2022/01/24 14:37:47;;;;;;;;;;;5.60;99.90;;;;;;4977076;28;19949;-81
2022/01/24 14:40:42;;;;;;;;;;;5.70;99.90;;;;;;4760564;29;19940;-83
2022/01/24 14:46:44;;;;;;;;;;;5.60;99.90;;;;;;5181574;27;19925;-88
2022/01/24 14:49:12;;;;;;;;;;;5.60;99.90;;;;;;5105001;28;19923;-91
2022/01/24 14:51:42;;;;;;;;;;;5.60;99.90;;;;;;5088024;28;19931;-91
2022/01/24 14:54:10;;;;;;;;;;;5.50;99.90;;;;;;5039235;28;19925;-85
2022/01/24 14:56:37;;;;;;;;;;;5.50;99.90;;;;;;4972686;28;19927;-82
2022/01/24 14:59:04;;;;;;;;;;;5.50;99.90;;;;;;4834999;29;19938;-85
2022/01/24 15:01:31;;;;;;;;;;;5.50;99.90;;;;;;4597616;30;19935;-83
2022/01/24 15:09:06;;;;;;;;;;;5.50;99.90;;;;;;5181801;27;19925;-85
2022/01/24 15:11:35;;;;;;;;;;;5.50;99.90;;;;;;5141822;27;19911;-81
2022/01/24 15:14:07;;;;;;;;;;;5.50;99.90;;;;;;5125259;28;19930;-81
2022/01/24 15:16:41;;;;;;;;;;;5.50;99.90;;;;;;5045923;28;19926;-84
2022/01/24 15:27:18;;;;;;;;;;;5.40;99.90;;;;;;5173506;27;19941;-84
2022/01/24 15:29:44;;;;;;;;;;;5.40;99.90;;;;;;5124202;27;19924;-85
2022/01/24 15:32:11;;;;;;;;;;;5.40;99.90;;;;;;5102839;28;19932;-84
2022/01/24 15:34:38;;;;;;;;;;;5.40;99.90;;;;;;5052761;28;19932;-84
2022/01/24 15:37:06;;;;;;;;;;;5.30;99.90;;;;;;5022495;28;19926;-84
2022/01/24 15:39:32;;;;;;;;;;;5.30;99.90;;;;;;4809175;29;19931;-86
2022/01/24 15:42:03;;;;;;;;;;;5.30;99.90;;;;;;4465165;30;19939;-82
2022/01/24 15:49:00;;;;;;;;;;;5.30;99.90;;;;;;5174823;27;19926;-87
2022/01/24 15:51:27;;;;;;;;;;;5.30;99.90;;;;;;5129986;27;19942;-87
2022/01/24 15:53:55;;;;;;;;;;;5.30;99.90;;;;;;5115949;27;19938;-86
2022/01/24 15:59:04;;;;;;;;;;;5.20;99.90;;;;;;4932673;28;19928;-83
2022/01/24 16:01:34;;;;;;;;;;;5.30;99.90;;;;;;4697524;29;19944;-83
2022/01/24 16:04:01;;;;;;;;;;;5.30;99.90;;;;;;4343140;31;19949;-85
2022/01/24 16:11:33;;;;;;;;;;;5.20;99.90;;;;;;5166276;27;19934;-83
2022/01/24 16:14:00;;;;;;;;;;;5.20;99.90;;;;;;5117536;27;19923;-84
2022/01/24 16:16:27;;;;;;;;;;;5.20;99.90;;;;;;5116669;27;19931;-85
2022/01/24 16:18:53;;;;;;;;;;;5.20;99.90;;;;;;5103823;28;19924;-84
2022/01/24 16:21:37;;;;;;;;;;;5.20;99.90;;;;;;5036726;28;19927;-86
2022/01/24 16:26:50;;;;;;;;;;;5.10;99.90;;;;;;4549980;30;19944;-83
2022/01/24 16:29:17;;;;;;;;;;;5.20;99.90;;;;;;4362435;32;19948;-83
2022/01/24 16:36:15;;;;;;;;;;;5.20;99.90;;;;;;5195624;27;19991;-80
2022/01/24 16:38:43;;;;;;;;;;;5.10;99.90;;;;;;5139068;27;19929;-81
2022/01/24 16:41:14;;;;;;;;;;;5.10;99.90;;;;;;5146446;27;19923;-82
2022/01/24 16:43:50;;;;;;;;;;;5.10;99.90;;;;;;5123331;27;19924;-82
2022/01/24 16:49:02;;;;;;;;;;;5.10;99.90;;;;;;4806423;29;19937;-84
2022/01/24 16:51:29;;;;;;;;;;;5.10;99.90;;;;;;4604820;30;19935;-84
2022/01/24 16:59:03;;;;;;;;;;;5.10;99.90;;;;;;5182015;27;19925;-84
2022/01/24 17:01:32;;;;;;;;;;;5.10;99.90;;;;;;5137988;27;19930;-83
2022/01/24 17:03:59;;;;;;;;;;;5.20;99.90;;;;;;5137198;27;19923;-88
2022/01/24 17:06:25;;;;;;;;;;;5.10;99.90;;;;;;5130441;27;19931;-87
2022/01/24 17:08:52;;;;;;;;;;;5.10;99.90;;;;;;5031641;28;19937;-81
2022/01/24 17:11:21;;;;;;;;;;;5.10;99.90;;;;;;4827022;29;19932;-88
2022/01/24 17:13:48;;;;;;;;;;;5.10;99.90;;;;;;4456094;31;19938;-87
2022/01/24 17:21:20;;;;;;;;;;;5.00;99.90;;;;;;5167251;27;19930;-84
2022/01/24 17:23:47;;;;;;;;;;;5.00;99.90;;;;;;5117735;27;19934;-82
2022/01/24 17:26:14;;;;;;;;;;;5.10;99.90;;;;;;5114303;27;19931;-88
2022/01/24 17:28:41;;;;;;;;;;;5.10;99.90;;;;;;5087789;28;19925;-83
2022/01/24 17:31:08;;;;;;;;;;;5.20;99.90;;;;;;4909271;28;19952;-85
2022/01/24 17:33:34;;;;;;;;;;;5.10;99.90;;;;;;4746830;29;19943;-82
2022/01/24 17:36:03;;;;;;;;;;;5.20;99.90;;;;;;4566862;30;19935;-82
2022/01/24 17:43:35;;;;;;;;;;;5.20;99.90;;;;;;5187524;27;19925;-90
2022/01/24 17:46:02;;;;;;;;;;;5.20;99.90;;;;;;5146831;27;19934;-82
2022/01/24 17:48:30;;;;;;;;;;;5.20;99.90;;;;;;5114919;28;19935;-83
2022/01/24 17:50:56;;;;;;;;;;;5.20;99.90;;;;;;5086697;28;19925;-85
2022/01/24 17:53:24;;;;;;;;;;;5.20;99.90;;;;;;5040436;28;19930;-85
2022/01/24 17:55:52;;;;;;;;;;;5.20;99.90;;;;;;4918213;28;19928;-85
2022/01/24 17:58:19;;;;;;;;;;;5.20;99.90;;;;;;4665169;29;19938;-84
2022/01/24 18:05:51;;;;;;;;;;;5.20;99.90;;;;;;5177020;27;19925;-84
2022/01/24 18:08:19;;;;;;;;;;;5.20;99.90;;;;;;5138212;27;19934;-86
2022/01/24 18:10:45;;;;;;;;;;;5.20;99.90;;;;;;5107487;28;19932;-81
2022/01/24 18:13:12;;;;;;;;;;;5.10;99.90;;;;;;5013183;28;19925;-84
2022/01/24 18:15:39;;;;;;;;;;;5.10;99.90;;;;;;4971503;28;19932;-83
2022/01/24 18:18:06;;;;;;;;;;;5.10;99.90;;;;;;4792988;29;19930;-83
2022/01/24 18:20:34;;;;;;;;;;;5.20;99.90;;;;;;4607162;30;19935;-84
2022/01/24 18:26:49;;;;;;;;;;;5.20;99.90;;;;;;5176123;27;19926;-83
2022/01/24 18:29:16;;;;;;;;;;;5.20;99.90;;;;;;5130083;27;19952;-84
2022/01/24 18:31:43;;;;;;;;;;;5.20;99.90;;;;;;5085647;28;19932;-83
2022/01/24 18:34:09;;;;;;;;;;;5.20;99.90;;;;;;5112729;27;19924;-84
2022/01/24 18:36:37;;;;;;;;;;;5.20;99.90;;;;;;5100121;27;19925;-83
2022/01/24 18:39:04;;;;;;;;;;;5.20;99.90;;;;;;4888230;28;20002;-82
2022/01/24 18:41:31;;;;;;;;;;;5.20;99.90;;;;;;4537276;30;19937;-82
2022/01/24 18:49:03;;;;;;;;;;;5.20;99.90;;;;;;5186533;27;19925;-82
2022/01/24 18:51:30;;;;;;;;;;;5.10;99.90;;;;;;5139210;27;19931;-85
2022/01/24 18:53:57;;;;;;;;;;;5.10;99.90;;;;;;5110407;28;19932;-84
2022/01/24 18:56:23;;;;;;;;;;;5.10;99.90;;;;;;5101432;28;19924;-85
2022/01/24 18:58:50;;;;;;;;;;;5.10;99.90;;;;;;5023942;28;19927;-84
2022/01/24 19:01:17;;;;;;;;;;;5.10;99.90;;;;;;4873350;29;19929;-83
2022/01/24 19:03:43;;;;;;;;;;;5.10;99.90;;;;;;4641303;29;19935;-85
2022/01/24 19:11:18;;;;;;;;;;;5.10;99.90;;;;;;5184328;27;19925;-80
2022/01/24 19:13:45;;;;;;;;;;;5.20;99.90;;;;;;5129650;27;19946;-85
2022/01/24 19:16:11;;;;;;;;;;;5.20;99.90;;;;;;5120293;27;19955;-82
2022/01/24 19:18:47;;;;;;;;;;;5.10;99.90;;;;;;5100930;28;19925;-88
2022/01/24 19:23:58;;;;;;;;;;;5.20;99.90;;;;;;4736577;29;19931;-83
2022/01/24 19:26:26;;;;;;;;;;;5.20;99.90;;;;;;4517488;30;19937;-86
2022/01/24 19:34:05;;;;;;;;;;;5.20;99.90;;;;;;5174845;27;19926;-84
2022/01/24 19:36:31;;;;;;;;;;;5.20;99.90;;;;;;5135716;27;19923;-83
2022/01/24 19:38:58;;;;;;;;;;;5.20;99.90;;;;;;5137215;27;19930;-84
2022/01/24 19:41:24;;;;;;;;;;;5.10;99.90;;;;;;5083895;28;19951;-86
2022/01/24 19:43:51;;;;;;;;;;;5.20;99.90;;;;;;4972747;28;19935;-85
2022/01/24 19:46:18;;;;;;;;;;;5.20;99.90;;;;;;4833233;29;19943;-87
2022/01/24 19:48:44;;;;;;;;;;;5.20;99.90;;;;;;4580806;29;19944;-85
2022/01/24 19:56:33;;;;;;;;;;;5.30;99.90;;;;;;5133283;27;19926;-84
2022/01/24 19:59:03;;;;;;;;;;;5.30;99.90;;;;;;5073812;28;19932;-82
2022/01/24 20:01:30;;;;;;;;;;;5.20;99.90;;;;;;5057541;28;19947;-83
2022/01/24 20:03:57;;;;;;;;;;;5.20;99.90;;;;;;5035164;28;19925;-82
2022/01/24 20:06:24;;;;;;;;;;;5.20;99.90;;;;;;4944382;28;19939;-89
2022/01/24 20:08:53;;;;;;;;;;;5.20;99.90;;;;;;4746329;29;19938;-91
2022/01/24 20:11:20;;;;;;;;;;;5.20;99.90;;;;;;4531970;30;19940;-92
2022/01/24 20:18:54;;;;;;;;;;;5.10;99.90;;;;;;5174061;27;19930;-86
2022/01/24 20:21:22;;;;;;;;;;;5.20;99.90;;;;;;5113310;27;19993;-85
2022/01/24 20:23:52;;;;;;;;;;;5.10;99.90;;;;;;5137744;27;19924;-84